Time;durP1;ratioP1;P1;durP2;ratioP2;P2;SDS_P1;SDS_P2;PMS_P1;PMS_P2;Temp;Humidity;BMP_temperature;BMP_pressure;BME280_temperature;BME280_humidity;BME280_pressure;Samples;Min_cycle;Max_cycle;Signal;HPM_P1;HPM_P2
2022/07/01 00:01:38;;;;;;;6.30;3.65;;;28.80;84.60;;;;;;5043696;28;20021;-74
2022/07/01 00:04:04;;;;;;;6.82;3.92;;;28.80;84.80;;;;;;5033546;28;20040;-74
2022/07/01 00:06:29;;;;;;;8.25;3.72;;;28.80;85.00;;;;;;5036580;28;20893;-74
2022/07/01 00:08:56;;;;;;;7.07;4.03;;;28.80;85.40;;;;;;5032321;28;20034;-75
2022/07/01 00:11:21;;;;;;;5.72;3.67;;;28.70;85.40;;;;;;5037915;28;20036;-75
2022/07/01 00:13:47;;;;;;;9.75;4.10;;;28.60;85.70;;;;;;5032049;28;20030;-75
2022/07/01 00:16:13;;;;;;;6.97;3.75;;;28.60;85.80;;;;;;5030688;28;20497;-74
2022/07/01 00:18:38;;;;;;;7.10;4.07;;;28.50;86.00;;;;;;5033464;28;20460;-75
2022/07/01 00:21:04;;;;;;;8.15;4.45;;;28.50;86.00;;;;;;5031906;28;20025;-75
2022/07/01 00:23:31;;;;;;;6.00;4.28;;;28.50;86.70;;;;;;5033269;28;20037;-74
2022/07/01 00:25:57;;;;;;;10.95;5.15;;;28.50;86.60;;;;;;5031418;28;20020;-75
2022/07/01 00:28:22;;;;;;;8.60;4.90;;;28.40;86.40;;;;;;5031809;28;20026;-74
2022/07/01 00:30:48;;;;;;;9.23;4.57;;;28.40;86.60;;;;;;5044760;28;20079;-74
2022/07/01 00:33:14;;;;;;;9.18;4.10;;;28.40;86.60;;;;;;5037113;28;20595;-75
2022/07/01 00:35:40;;;;;;;10.32;5.22;;;28.40;86.70;;;;;;5034175;28;20029;-75
2022/07/01 00:38:05;;;;;;;8.68;4.72;;;28.40;86.70;;;;;;5030041;28;20028;-75
2022/07/01 00:40:31;;;;;;;8.20;4.63;;;28.40;86.70;;;;;;5030401;28;20067;-75
2022/07/01 00:42:57;;;;;;;9.35;4.32;;;28.40;86.70;;;;;;5032319;28;20034;-75
2022/07/01 00:45:22;;;;;;;9.68;5.40;;;28.30;86.70;;;;;;5032021;28;20542;-74
2022/07/01 00:47:50;;;;;;;8.80;4.35;;;28.20;87.20;;;;;;5029828;28;20503;-76
2022/07/01 00:50:17;;;;;;;9.90;4.70;;;28.20;87.00;;;;;;5034384;28;20044;-74
2022/07/01 00:52:44;;;;;;;7.68;4.45;;;28.20;87.00;;;;;;5035265;28;20128;-74
2022/07/01 00:55:14;;;;;;;9.60;4.40;;;28.20;87.00;;;;;;5032333;28;20037;-75
2022/07/01 00:57:42;;;;;;;9.68;4.97;;;28.20;87.10;;;;;;5032368;28;20098;-75
2022/07/01 01:00:11;;;;;;;7.43;4.70;;;28.10;87.20;;;;;;5040802;28;20057;-75
2022/07/01 01:02:37;;;;;;;9.53;4.60;;;28.00;87.20;;;;;;5028045;28;20030;-75
2022/07/01 01:05:04;;;;;;;7.45;3.90;;;28.00;87.20;;;;;;5030902;28;20033;-75
2022/07/01 01:07:31;;;;;;;8.48;4.88;;;28.00;87.20;;;;;;5029929;28;20040;-74
2022/07/01 01:09:57;;;;;;;6.55;3.65;;;28.00;87.30;;;;;;5034542;28;20056;-74
2022/07/01 01:12:25;;;;;;;7.38;4.07;;;28.00;87.30;;;;;;5032859;28;20034;-75
2022/07/01 01:14:51;;;;;;;8.40;4.40;;;28.00;87.30;;;;;;5035401;28;20057;-75
2022/07/01 01:17:18;;;;;;;8.35;4.38;;;28.00;87.30;;;;;;5030987;28;20061;-74
2022/07/01 01:19:44;;;;;;;7.65;3.78;;;28.00;87.30;;;;;;5029024;28;20029;-75
2022/07/01 01:22:14;;;;;;;8.13;4.22;;;28.00;87.30;;;;;;5023763;28;20105;-73
2022/07/01 01:24:41;;;;;;;9.43;4.60;;;27.90;87.30;;;;;;5030845;28;20432;-73
2022/07/01 01:27:07;;;;;;;6.22;4.90;;;28.00;87.40;;;;;;5030912;28;20525;-76
2022/07/01 01:29:35;;;;;;;8.45;4.05;;;27.90;87.90;;;;;;5027471;28;20079;-75
2022/07/01 01:32:02;;;;;;;9.65;5.18;;;27.90;87.70;;;;;;5039754;28;20034;-76
2022/07/01 01:34:28;;;;;;;6.28;4.25;;;27.90;87.90;;;;;;5030396;28;20061;-74
2022/07/01 01:36:54;;;;;;;7.57;3.72;;;27.80;87.80;;;;;;5035820;28;20103;-75
2022/07/01 01:39:20;;;;;;;11.05;4.07;;;27.80;87.90;;;;;;5036101;28;20084;-75
2022/07/01 01:41:47;;;;;;;13.30;6.10;;;27.80;87.90;;;;;;5028510;28;20029;-75
2022/07/01 01:44:13;;;;;;;5.50;3.60;;;27.80;88.90;;;;;;5029223;28;20517;-74
2022/07/01 01:46:39;;;;;;;7.90;3.72;;;27.80;88.50;;;;;;5038373;28;20045;-74
2022/07/01 01:49:05;;;;;;;7.05;3.47;;;27.70;88.40;;;;;;5030584;28;20033;-74
2022/07/01 01:51:31;;;;;;;7.07;3.97;;;27.70;88.50;;;;;;5039450;28;20032;-74
2022/07/01 01:53:58;;;;;;;7.43;3.78;;;27.70;89.00;;;;;;5031701;28;20108;-74
2022/07/01 01:56:25;;;;;;;9.30;3.90;;;27.70;88.80;;;;;;5023571;28;20076;-74
2022/07/01 01:58:51;;;;;;;8.75;4.47;;;27.70;88.90;;;;;;5028111;28;20033;-73
2022/07/01 02:01:18;;;;;;;6.57;4.68;;;27.70;89.00;;;;;;5035811;28;20041;-74
2022/07/01 02:03:46;;;;;;;7.70;4.18;;;27.70;89.20;;;;;;5026156;28;20496;-84
2022/07/01 02:06:13;;;;;;;8.43;4.57;;;27.70;88.80;;;;;;5038793;28;20043;-72
2022/07/01 02:08:39;;;;;;;7.82;4.20;;;27.70;88.90;;;;;;5037156;28;20061;-73
2022/07/01 02:11:06;;;;;;;7.57;4.72;;;27.70;89.10;;;;;;5025170;28;20037;-73
2022/07/01 02:13:33;;;;;;;9.80;3.97;;;27.60;89.10;;;;;;5030069;28;20492;-73
2022/07/01 02:15:59;;;;;;;9.10;4.80;;;27.60;89.20;;;;;;5032227;28;20033;-73
2022/07/01 02:18:25;;;;;;;9.82;5.88;;;27.60;89.70;;;;;;5043432;28;20025;-74
2022/07/01 02:20:50;;;;;;;9.18;4.22;;;27.50;90.20;;;;;;5027175;28;20022;-73
2022/07/01 02:23:17;;;;;;;6.57;4.00;;;27.50;89.80;;;;;;5035384;28;20082;-77
2022/07/01 02:25:43;;;;;;;5.63;4.15;;;27.50;90.00;;;;;;5030341;28;20359;-76
2022/07/01 02:28:10;;;;;;;8.18;4.43;;;27.50;90.00;;;;;;5028825;28;20025;-77
2022/07/01 02:30:36;;;;;;;9.85;5.60;;;27.50;90.00;;;;;;5029066;28;20034;-77
2022/07/01 02:33:05;;;;;;;12.95;6.25;;;27.40;90.30;;;;;;5032733;28;20068;-77
2022/07/01 02:35:39;;;;;;;11.77;3.88;;;27.40;90.30;;;;;;5032361;28;20033;-76
2022/07/01 02:38:07;;;;;;;9.63;4.65;;;27.40;90.10;;;;;;5035708;28;20033;-77
2022/07/01 02:40:34;;;;;;;10.00;5.88;;;27.40;90.20;;;;;;5036452;28;20028;-77
2022/07/01 02:43:00;;;;;;;6.78;4.22;;;27.40;90.20;;;;;;5036343;28;20376;-77
2022/07/01 02:45:26;;;;;;;7.38;4.65;;;27.40;90.10;;;;;;5035495;28;20432;-77
2022/07/01 02:47:52;;;;;;;15.80;5.68;;;27.40;90.10;;;;;;5036499;28;20030;-77
2022/07/01 02:50:19;;;;;;;6.10;3.83;;;27.40;90.10;;;;;;5036321;28;20065;-77
2022/07/01 02:52:45;;;;;;;6.57;3.88;;;27.40;90.10;;;;;;5036342;28;20044;-77
2022/07/01 02:55:13;;;;;;;6.88;4.68;;;27.40;90.20;;;;;;5036528;28;20076;-77
2022/07/01 02:57:39;;;;;;;11.00;4.80;;;27.40;90.20;;;;;;5036220;28;20109;-78
2022/07/01 03:00:07;;;;;;;5.70;4.20;;;27.40;90.20;;;;;;5036022;28;20120;-77
2022/07/01 03:02:33;;;;;;;5.40;3.78;;;27.40;90.20;;;;;;5036090;28;20109;-77
2022/07/01 03:04:59;;;;;;;10.65;5.10;;;27.40;90.20;;;;;;5036029;28;20108;-77
2022/07/01 03:07:25;;;;;;;7.05;3.90;;;27.40;90.40;;;;;;5036077;28;20052;-77
2022/07/01 03:09:52;;;;;;;7.40;5.28;;;27.40;90.30;;;;;;5035369;28;20144;-77
2022/07/01 03:12:30;;;;;;;8.52;4.68;;;27.20;90.60;;;;;;5023995;28;20114;-77
2022/07/01 03:15:00;;;;;;;7.53;4.97;;;27.20;90.50;;;;;;5017977;28;20401;-77
2022/07/01 03:17:26;;;;;;;;;;;27.30;90.60;;;;;;5034306;28;20519;-77
2022/07/01 03:19:53;;;;;;;11.07;5.32;;;27.20;90.50;;;;;;5035280;28;19909;-77
2022/07/01 03:22:23;;;;;;;10.85;5.45;;;27.20;90.50;;;;;;5031270;28;20052;-77
2022/07/01 03:24:49;;;;;;;;;;;27.20;90.50;;;;;;5016025;28;20030;-77
2022/07/01 03:27:16;;;;;;;11.77;6.47;;;27.20;90.60;;;;;;5015533;28;19953;-77
2022/07/01 03:29:42;;;;;;;7.15;5.22;;;27.20;90.80;;;;;;5015822;28;20029;-77
2022/07/01 03:32:09;;;;;;;12.68;5.55;;;27.10;90.80;;;;;;5015492;28;20042;-77
2022/07/01 03:34:39;;;;;;;12.43;5.90;;;27.10;90.70;;;;;;5016790;28;20022;-78
2022/07/01 03:37:06;;;;;;;7.53;5.20;;;27.10;90.80;;;;;;5015467;28;20038;-77
2022/07/01 03:39:33;;;;;;;8.77;5.38;;;27.10;90.70;;;;;;5015931;28;20034;-77
2022/07/01 03:41:58;;;;;;;10.45;7.15;;;27.10;90.80;;;;;;5015809;28;20524;-77
2022/07/01 03:44:24;;;;;;;8.25;5.80;;;27.10;90.90;;;;;;5029540;28;20109;-77
2022/07/01 03:46:50;;;;;;;9.35;5.97;;;27.00;90.70;;;;;;5034385;28;20050;-76
2022/07/01 03:49:15;;;;;;;11.77;6.70;;;27.00;90.70;;;;;;5035102;28;20029;-77
2022/07/01 03:51:41;;;;;;;10.25;6.57;;;27.00;90.80;;;;;;5034937;28;20033;-77
2022/07/01 03:56:51;;;;;;;7.75;6.00;;;26.90;90.90;;;;;;5015344;28;20049;-77
2022/07/01 03:59:16;;;;;;;9.63;5.97;;;26.90;90.70;;;;;;5015287;28;20030;-77
2022/07/01 04:01:42;;;;;;;10.60;6.32;;;26.90;90.70;;;;;;5015203;28;20113;-77
2022/07/01 04:04:08;;;;;;;9.25;6.50;;;26.90;90.80;;;;;;5015237;28;20168;-77
2022/07/01 04:06:34;;;;;;;14.20;8.02;;;26.80;90.80;;;;;;5014982;28;20084;-77
2022/07/01 04:09:00;;;;;;;10.60;6.25;;;26.70;91.00;;;;;;5029393;28;20065;-76
2022/07/01 04:11:26;;;;;;;13.20;6.90;;;26.70;91.00;;;;;;5034860;28;20049;-77
2022/07/01 04:13:52;;;;;;;13.45;6.47;;;26.60;91.10;;;;;;5033131;28;20174;-77
2022/07/01 04:16:19;;;;;;;9.30;6.40;;;26.60;91.00;;;;;;5021554;28;20034;-76
2022/07/01 04:18:46;;;;;;;8.95;5.95;;;26.70;91.00;;;;;;5014853;28;20025;-76
2022/07/01 04:23:59;;;;;;;9.60;6.57;;;26.80;90.90;;;;;;5015383;28;20088;-76
2022/07/01 04:26:25;;;;;;;10.13;6.30;;;26.80;90.80;;;;;;5034225;28;20098;-76
2022/07/01 04:28:52;;;;;;;8.80;6.95;;;26.80;91.10;;;;;;5018413;28;20026;-77
2022/07/01 04:31:18;;;;;;;14.00;7.35;;;26.80;90.80;;;;;;5014336;28;20045;-77
2022/07/01 04:33:45;;;;;;;14.00;6.60;;;26.70;90.90;;;;;;5014409;28;20382;-76
2022/07/01 04:36:11;;;;;;;13.25;7.75;;;26.70;90.80;;;;;;5014360;28;20117;-76
2022/07/01 04:38:36;;;;;;;13.65;8.00;;;26.80;90.90;;;;;;5028909;28;20585;-77
2022/07/01 04:43:46;;;;;;;12.10;7.15;;;26.80;90.80;;;;;;5024497;28;20084;-76
2022/07/01 04:46:12;;;;;;;12.18;6.55;;;26.80;91.10;;;;;;5028681;28;20065;-76
2022/07/01 04:48:38;;;;;;;12.25;6.50;;;26.80;90.90;;;;;;5014659;28;20354;-76
2022/07/01 04:51:03;;;;;;;8.52;6.25;;;26.80;90.90;;;;;;5029124;28;20041;-76
2022/07/01 04:53:29;;;;;;;9.15;5.53;;;26.80;91.10;;;;;;5032442;28;20029;-76
2022/07/01 04:55:55;;;;;;;9.05;5.45;;;26.80;91.10;;;;;;5017009;28;20022;-76
2022/07/01 04:58:20;;;;;;;10.27;6.18;;;26.80;91.10;;;;;;5013292;28;20129;-76
2022/07/01 05:00:48;;;;;;;7.80;5.75;;;26.80;91.40;;;;;;5015190;28;20034;-77
2022/07/01 05:03:14;;;;;;;9.05;6.20;;;26.80;91.20;;;;;;5012790;28;20022;-76
2022/07/01 05:05:40;;;;;;;10.45;5.03;;;26.80;91.50;;;;;;5013649;28;20080;-77
2022/07/01 05:08:05;;;;;;;10.35;5.10;;;26.80;91.50;;;;;;5013919;28;20358;-77
2022/07/01 05:10:31;;;;;;;8.07;4.95;;;26.90;91.50;;;;;;5022103;28;20550;-76
2022/07/01 05:12:56;;;;;;;12.90;7.85;;;26.90;91.50;;;;;;5014126;28;20029;-76
2022/07/01 05:15:22;;;;;;;11.38;6.20;;;26.90;92.00;;;;;;5025225;28;20038;-76
2022/07/01 05:23:16;;;;;;;12.18;6.93;;;27.00;92.30;;;;;;5013702;28;20389;-76
2022/07/01 05:25:41;;;;;;;16.00;8.27;;;27.00;92.20;;;;;;5012695;28;20033;-76
2022/07/01 05:28:07;;;;;;;10.55;5.80;;;26.90;92.30;;;;;;5027579;28;20029;-76
2022/07/01 05:30:33;;;;;;;9.30;5.35;;;27.00;92.10;;;;;;5031178;28;20025;-77
2022/07/01 05:32:58;;;;;;;6.13;4.38;;;27.00;92.10;;;;;;5013531;28;20030;-77
2022/07/01 05:35:24;;;;;;;13.02;6.25;;;27.00;92.00;;;;;;5013317;28;20026;-77
2022/07/01 05:37:49;;;;;;;7.43;4.70;;;27.10;92.10;;;;;;5013161;28;20030;-76
2022/07/01 05:40:15;;;;;;;7.40;5.00;;;27.10;91.90;;;;;;5013442;28;20384;-76
2022/07/01 05:42:41;;;;;;;8.57;4.78;;;27.10;91.80;;;;;;5024476;28;20023;-76
2022/07/01 05:45:07;;;;;;;7.80;4.82;;;27.20;91.80;;;;;;5032175;28;20044;-77
2022/07/01 05:47:32;;;;;;;7.22;5.22;;;27.30;91.70;;;;;;5032762;28;20021;-76
2022/07/01 05:49:58;;;;;;;9.43;4.88;;;27.30;91.60;;;;;;5032978;28;20442;-77
2022/07/01 05:52:24;;;;;;;8.85;5.70;;;27.40;91.40;;;;;;5033032;28;20030;-77
2022/07/01 05:54:49;;;;;;;12.15;4.85;;;27.40;91.50;;;;;;5032735;28;20037;-76
2022/07/01 05:57:15;;;;;;;6.22;3.83;;;27.30;91.40;;;;;;5032636;28;20038;-77
2022/07/01 05:59:41;;;;;;;12.75;6.07;;;27.40;91.30;;;;;;5032642;28;20346;-77
2022/07/01 06:02:06;;;;;;;8.70;4.13;;;27.40;91.30;;;;;;5022031;28;20445;-77
2022/07/01 06:04:33;;;;;;;5.20;2.85;;;27.40;91.10;;;;;;5043148;28;20393;-76
2022/07/01 06:06:59;;;;;;;11.30;4.30;;;27.50;91.00;;;;;;5033304;28;20033;-76
2022/07/01 06:09:25;;;;;;;9.55;3.47;;;27.50;90.90;;;;;;5034738;28;20037;-76
2022/07/01 06:11:50;;;;;;;6.05;4.07;;;27.50;90.80;;;;;;5018559;28;20040;-77
2022/07/01 06:14:16;;;;;;;7.32;3.25;;;27.50;90.70;;;;;;5034358;28;20033;-76
2022/07/01 06:16:42;;;;;;;5.80;3.17;;;27.50;90.60;;;;;;5033488;28;20033;-77
2022/07/01 06:19:07;;;;;;;6.20;2.97;;;27.60;90.60;;;;;;5036741;28;20393;-78
2022/07/01 06:21:33;;;;;;;6.50;3.17;;;27.60;90.50;;;;;;5032417;28;20388;-77
2022/07/01 06:23:59;;;;;;;6.60;2.50;;;27.60;90.30;;;;;;5020949;28;20031;-77
2022/07/01 06:26:25;;;;;;;7.40;3.38;;;27.70;90.20;;;;;;5025133;28;20033;-78
2022/07/01 06:28:51;;;;;;;13.13;3.75;;;27.70;90.10;;;;;;5056651;28;20376;-85
2022/07/01 06:31:16;;;;;;;7.75;3.30;;;27.80;89.10;;;;;;5048716;28;20511;-87
2022/07/01 06:33:42;;;;;;;6.55;2.38;;;27.70;88.80;;;;;;5036686;28;20021;-87
2022/07/01 06:36:08;;;;;;;5.30;2.25;;;27.80;88.90;;;;;;5036547;28;20086;-87
2022/07/01 06:38:33;;;;;;;5.55;1.98;;;27.80;88.10;;;;;;5033425;28;20049;-85
2022/07/01 06:43:43;;;;;;;5.53;2.20;;;27.90;87.60;;;;;;5030832;28;20076;-86
2022/07/01 06:46:10;;;;;;;5.50;2.20;;;27.90;87.30;;;;;;5031613;28;20033;-86
2022/07/01 06:48:35;;;;;;;6.07;1.83;;;27.90;86.80;;;;;;5035677;28;20104;-86
2022/07/01 06:51:05;;;;;;;4.30;2.20;;;28.00;86.60;;;;;;5032718;28;20108;-86
2022/07/01 06:53:30;;;;;;;2.97;1.40;;;28.10;86.10;;;;;;5035769;28;20060;-86
2022/07/01 06:55:57;;;;;;;5.68;2.38;;;28.10;85.50;;;;;;5032366;28;20075;-85
2022/07/01 06:58:22;;;;;;;4.57;2.03;;;28.20;85.60;;;;;;5033260;28;20057;-86
2022/07/01 07:00:48;;;;;;;4.20;2.03;;;28.20;85.40;;;;;;5032594;28;20402;-86
2022/07/01 07:03:14;;;;;;;5.70;2.40;;;28.20;85.50;;;;;;5032002;28;20029;-86
2022/07/01 07:05:40;;;;;;;4.15;2.10;;;28.30;85.00;;;;;;5034125;28;20041;-87
2022/07/01 07:08:05;;;;;;;4.13;2.58;;;28.30;85.00;;;;;;5036119;28;20021;-86
2022/07/01 07:10:31;;;;;;;6.68;2.22;;;28.30;84.70;;;;;;5032615;28;20076;-86
2022/07/01 07:12:56;;;;;;;3.50;2.17;;;28.30;84.90;;;;;;5025803;28;20072;-85
2022/07/01 07:15:22;;;;;;;3.30;2.15;;;28.30;84.80;;;;;;5028311;28;20029;-86
2022/07/01 07:17:48;;;;;;;4.63;2.20;;;28.30;84.70;;;;;;5031457;28;20044;-86
2022/07/01 07:20:13;;;;;;;6.38;3.00;;;28.40;84.20;;;;;;5031560;28;20026;-86
2022/07/01 07:22:39;;;;;;;3.97;2.13;;;28.40;84.70;;;;;;5032728;28;20025;-84
2022/07/01 07:25:05;;;;;;;4.55;2.30;;;28.40;84.70;;;;;;5032373;28;20037;-83
2022/07/01 07:27:31;;;;;;;3.42;1.58;;;28.40;84.70;;;;;;5032283;28;20037;-84
2022/07/01 07:29:56;;;;;;;5.15;2.00;;;28.50;84.30;;;;;;5032977;28;20030;-85
2022/07/01 07:32:22;;;;;;;3.72;2.00;;;28.60;84.20;;;;;;5030385;28;20067;-85
2022/07/01 07:34:47;;;;;;;5.43;2.03;;;28.60;83.80;;;;;;5032538;28;20055;-85
2022/07/01 07:37:13;;;;;;;5.40;2.30;;;28.70;83.00;;;;;;5035301;28;20177;-82
2022/07/01 07:39:39;;;;;;;5.93;1.90;;;28.60;82.00;;;;;;5035345;28;20046;-83
2022/07/01 07:42:05;;;;;;;6.68;2.10;;;28.70;82.50;;;;;;5034906;28;20029;-84
2022/07/01 07:44:31;;;;;;;2.60;1.30;;;28.80;82.60;;;;;;5034164;28;20025;-84
2022/07/01 07:46:57;;;;;;;5.90;1.63;;;28.80;82.30;;;;;;5034380;28;20378;-85
2022/07/01 07:49:24;;;;;;;7.47;2.67;;;28.90;82.20;;;;;;5035395;28;20037;-86
2022/07/01 07:51:51;;;;;;;16.08;2.42;;;29.00;81.70;;;;;;5033635;28;20060;-84
2022/07/01 07:54:17;;;;;;;6.30;1.92;;;29.00;79.90;;;;;;5035664;28;20064;-84
2022/07/01 07:56:43;;;;;;;2.78;1.33;;;29.00;79.70;;;;;;5033397;28;20033;-85
2022/07/01 07:59:08;;;;;;;5.00;1.48;;;29.10;79.70;;;;;;5035007;28;20105;-86
2022/07/01 08:01:34;;;;;;;4.05;1.65;;;29.20;79.60;;;;;;5035080;28;20109;-86
2022/07/01 08:04:00;;;;;;;4.65;1.58;;;29.20;77.80;;;;;;5034727;28;20053;-87
2022/07/01 08:06:26;;;;;;;4.00;1.95;;;29.20;78.50;;;;;;5035085;28;20079;-87
2022/07/01 08:08:51;;;;;;;6.97;2.20;;;29.30;78.10;;;;;;5034828;28;20041;-86
2022/07/01 08:11:17;;;;;;;5.38;1.58;;;29.40;78.20;;;;;;5030851;28;20030;-86
2022/07/01 08:13:43;;;;;;;6.43;2.33;;;29.50;78.30;;;;;;5034527;28;20385;-85
2022/07/01 08:16:09;;;;;;;6.53;1.40;;;29.60;78.40;;;;;;5034904;28;20109;-87
2022/07/01 08:18:35;;;;;;;5.25;1.60;;;29.70;78.10;;;;;;5034787;28;20030;-78
2022/07/01 08:21:01;;;;;;;3.40;1.58;;;29.70;76.90;;;;;;5034466;28;20028;-78
2022/07/01 08:23:26;;;;;;;6.32;1.92;;;29.80;76.80;;;;;;5032176;28;20029;-78
2022/07/01 08:25:52;;;;;;;8.85;2.35;;;29.80;76.70;;;;;;5017765;28;20030;-78
2022/07/01 08:28:18;;;;;;;2.88;1.52;;;29.80;76.30;;;;;;5025629;28;20038;-78
2022/07/01 08:30:44;;;;;;;11.30;1.70;;;29.80;76.00;;;;;;5034671;28;20036;-87
2022/07/01 08:33:10;;;;;;;6.85;1.60;;;29.90;76.30;;;;;;5024368;28;20477;-87
2022/07/01 08:35:36;;;;;;;4.93;1.73;;;29.80;76.10;;;;;;5025092;28;20029;-88
2022/07/01 08:38:03;;;;;;;19.38;15.10;;;29.90;76.10;;;;;;5014574;28;20037;-86
2022/07/01 08:40:30;;;;;;;102.57;83.97;;;29.90;76.20;;;;;;5014930;28;20021;-88
2022/07/01 08:43:01;;;;;;;166.50;137.60;;;29.90;76.50;;;;;;5015726;28;20079;-86
2022/07/01 08:45:29;;;;;;;46.72;34.70;;;29.90;76.60;;;;;;5034036;28;20045;-86
2022/07/01 08:48:00;;;;;;;10.95;3.90;;;30.00;76.20;;;;;;5030350;28;20052;-87
2022/07/01 08:50:26;;;;;;;5.60;3.05;;;30.00;75.40;;;;;;5022853;28;20030;-77
2022/07/01 08:52:52;;;;;;;8.48;2.42;;;29.90;76.30;;;;;;5026308;28;20061;-87
2022/07/01 08:55:20;;;;;;;11.98;2.92;;;29.90;76.30;;;;;;5024474;28;20072;-88
2022/07/01 08:57:47;;;;;;;9.63;2.63;;;29.90;75.50;;;;;;5018148;28;20072;-77
2022/07/01 09:00:13;;;;;;;7.90;2.40;;;29.90;75.90;;;;;;5021716;28;20073;-77
2022/07/01 09:02:50;;;;;;;7.97;1.95;;;29.90;75.40;;;;;;5022829;28;20350;-77
2022/07/01 09:05:16;;;;;;;4.25;1.83;;;30.00;76.30;;;;;;5027562;28;20072;-77
2022/07/01 09:07:41;;;;;;;10.25;2.42;;;30.10;75.70;;;;;;5022424;28;20037;-78
2022/07/01 09:10:18;;;;;;;5.25;2.55;;;30.10;76.00;;;;;;5023591;28;20029;-77
2022/07/01 09:12:45;;;;;;;6.55;2.10;;;30.20;75.70;;;;;;5023584;28;20037;-86
2022/07/01 09:15:26;;;;;;;6.55;2.75;;;30.30;75.80;;;;;;5022611;28;20112;-86
2022/07/01 09:18:14;;;;;;;7.05;2.30;;;30.40;75.00;;;;;;5023712;28;20033;-78
2022/07/01 09:20:42;;;;;;;5.10;2.20;;;30.40;75.40;;;;;;5023344;28;20026;-78
2022/07/01 09:23:10;;;;;;;8.05;2.72;;;30.40;75.30;;;;;;5023386;28;20101;-78
2022/07/01 09:25:56;;;;;;;5.32;1.95;;;30.30;75.40;;;;;;5023948;28;20052;-78
2022/07/01 09:28:26;;;;;;;7.07;2.75;;;30.40;76.10;;;;;;5027275;28;20041;-77
2022/07/01 09:30:53;;;;;;;;;;;30.40;76.50;;;;;;5017908;28;20025;-78
2022/07/01 09:33:22;;;;;;;7.85;2.67;;;30.50;76.80;;;;;;5022327;28;20319;-85
2022/07/01 09:35:51;;;;;;;7.87;1.90;;;30.50;77.00;;;;;;5022843;28;20057;-78
2022/07/01 09:38:24;;;;;;;6.30;2.08;;;30.60;76.50;;;;;;5027999;28;20033;-77
2022/07/01 09:41:06;;;;;;;7.85;2.40;;;30.60;76.60;;;;;;5029905;28;20099;-76
2022/07/01 09:43:34;;;;;;;6.57;2.03;;;30.70;76.70;;;;;;5025852;28;20025;-77
2022/07/01 09:46:10;;;;;;;6.60;2.35;;;30.70;76.90;;;;;;5025554;28;20032;-77
2022/07/01 09:48:35;;;;;;;4.70;1.70;;;30.80;76.90;;;;;;5026989;28;20033;-78
2022/07/01 09:51:03;;;;;;;6.10;2.38;;;30.80;77.00;;;;;;5024284;28;20026;-78
2022/07/01 09:53:29;;;;;;;8.82;2.97;;;30.90;77.10;;;;;;5024216;28;20033;-75
2022/07/01 09:55:55;;;;;;;7.88;2.42;;;31.00;76.90;;;;;;5025760;28;20454;-75
2022/07/01 09:58:21;;;;;;;6.82;2.72;;;31.10;77.00;;;;;;5039721;28;20164;-78
2022/07/01 10:00:47;;;;;;;8.98;2.53;;;31.10;76.30;;;;;;5052316;28;20457;-75
2022/07/01 10:03:14;;;;;;;6.15;2.40;;;31.20;76.10;;;;;;5052213;28;20032;-75
2022/07/01 10:05:48;;;;;;;9.88;3.05;;;31.30;76.20;;;;;;5033319;28;20022;-75
2022/07/01 10:08:38;;;;;;;8.25;2.40;;;31.30;76.00;;;;;;5028875;28;20060;-75
2022/07/01 10:11:35;;;;;;;;;;;31.40;76.10;;;;;;5026823;28;20025;-75
2022/07/01 10:14:04;;;;;;;5.45;2.20;;;31.50;75.60;;;;;;4999624;28;19909;-75
2022/07/01 10:16:31;;;;;;;6.25;2.40;;;31.60;76.10;;;;;;5025666;28;20029;-75
2022/07/01 10:18:57;;;;;;;8.60;2.50;;;31.70;76.40;;;;;;5023883;28;20021;-75
2022/07/01 10:21:28;;;;;;;8.48;2.35;;;31.80;75.90;;;;;;5021620;28;20031;-75
2022/07/01 10:24:11;;;;;;;8.10;3.13;;;31.90;75.40;;;;;;5021745;28;20105;-85
2022/07/01 10:26:37;;;;;;;7.70;2.60;;;31.90;75.20;;;;;;5030863;28;20034;-84
2022/07/01 10:29:03;;;;;;;6.75;2.50;;;31.90;74.80;;;;;;5031563;28;20109;-85
2022/07/01 10:31:38;;;;;;;7.97;2.28;;;31.80;75.10;;;;;;5019484;28;20022;-84
2022/07/01 10:34:04;;;;;;;6.35;2.63;;;31.90;75.30;;;;;;5020901;28;20105;-85
2022/07/01 10:36:34;;;;;;;12.13;3.47;;;32.00;75.10;;;;;;5020906;28;20513;-85
2022/07/01 10:39:00;;;;;;;7.30;2.50;;;31.90;73.70;;;;;;5020791;28;20018;-85
2022/07/01 10:41:28;;;;;;;7.00;2.50;;;31.80;74.30;;;;;;5022232;28;20032;-85
2022/07/01 10:43:55;;;;;;;8.10;2.78;;;31.80;74.50;;;;;;5022116;28;20026;-84
2022/07/01 10:46:45;;;;;;;9.13;2.83;;;31.80;74.90;;;;;;5025058;28;20042;-85
2022/07/01 10:49:16;;;;;;;11.02;2.80;;;31.90;75.20;;;;;;5031775;28;20017;-84
2022/07/01 10:51:54;;;;;;;13.75;3.08;;;31.80;75.00;;;;;;5028636;28;20163;-84
2022/07/01 10:54:40;;;;;;;12.38;3.13;;;31.70;74.80;;;;;;5052626;28;20457;-84
2022/07/01 10:57:23;;;;;;;6.53;2.75;;;31.70;75.10;;;;;;5029030;28;20046;-85
2022/07/01 10:59:50;;;;;;;9.55;3.33;;;31.70;75.00;;;;;;5035083;28;20116;-84
2022/07/01 11:02:34;;;;;;;8.68;3.00;;;31.80;74.90;;;;;;5036098;28;20048;-84
2022/07/01 11:05:01;;;;;;;8.32;3.83;;;31.80;74.90;;;;;;5035789;28;20544;-84
2022/07/01 11:07:28;;;;;;;11.30;3.28;;;31.80;75.10;;;;;;5032756;28;20041;-84
2022/07/01 11:09:54;;;;;;;8.55;2.67;;;32.00;75.50;;;;;;5035694;28;20045;-84
2022/07/01 11:12:24;;;;;;;8.95;3.17;;;32.20;75.30;;;;;;5029027;28;20026;-84
2022/07/01 11:14:50;;;;;;;7.57;2.78;;;32.30;75.00;;;;;;5016936;28;20034;-84
2022/07/01 11:17:17;;;;;;;11.88;3.67;;;32.40;75.10;;;;;;5032855;28;20048;-84
2022/07/01 11:19:58;;;;;;;14.18;3.72;;;32.50;74.90;;;;;;5055154;28;20392;-84
2022/07/01 11:22:26;;;;;;;9.23;3.58;;;32.50;74.90;;;;;;5027301;28;21450;-84
2022/07/01 11:24:53;;;;;;;9.10;3.67;;;32.40;74.80;;;;;;5029248;28;20053;-84
2022/07/01 11:27:19;;;;;;;12.23;4.03;;;32.50;74.80;;;;;;5019400;28;20038;-84
2022/07/01 11:29:45;;;;;;;10.15;3.25;;;32.60;74.20;;;;;;5026354;28;20032;-84
2022/07/01 11:32:11;;;;;;;8.68;3.47;;;32.80;74.10;;;;;;5030629;28;20026;-88
2022/07/01 11:34:37;;;;;;;12.13;2.90;;;33.20;73.00;;;;;;5023386;28;20033;-87
2022/07/01 11:40:12;;;;;;;10.98;3.42;;;33.50;69.80;;;;;;5026451;28;20052;-86
2022/07/01 11:42:38;;;;;;;5.70;2.83;;;33.60;70.40;;;;;;5027505;28;20102;-86
2022/07/01 11:45:04;;;;;;;13.65;4.05;;;33.80;70.80;;;;;;5022609;28;20038;-88
2022/07/01 11:47:30;;;;;;;10.05;3.22;;;33.90;69.90;;;;;;5026287;28;20067;-89
2022/07/01 11:49:57;;;;;;;7.65;3.05;;;33.90;70.00;;;;;;5031658;28;20026;-89
2022/07/01 11:52:23;;;;;;;9.85;3.50;;;33.90;69.80;;;;;;5022067;28;20063;-87
2022/07/01 11:54:59;;;;;;;11.52;3.45;;;33.80;70.20;;;;;;5022199;28;20037;-84
2022/07/01 11:57:29;;;;;;;9.75;3.05;;;33.70;69.60;;;;;;5021027;28;20072;-88
2022/07/01 11:59:56;;;;;;;10.43;3.53;;;33.50;70.80;;;;;;5031548;28;20124;-87
2022/07/01 12:02:23;;;;;;;10.20;3.42;;;33.60;71.10;;;;;;5031094;28;20097;-88
2022/07/01 12:04:50;;;;;;;10.60;4.03;;;33.80;71.70;;;;;;5027395;28;20493;-86
2022/07/01 12:07:21;;;;;;;11.90;3.88;;;34.00;71.70;;;;;;5025300;28;20026;-87
2022/07/01 12:09:47;;;;;;;21.60;4.93;;;34.30;71.20;;;;;;5020289;28;20033;-87
2022/07/01 12:12:21;;;;;;;14.15;4.38;;;34.00;70.70;;;;;;5031449;28;20052;-90
2022/07/01 12:14:58;;;;;;;13.20;3.92;;;33.80;71.30;;;;;;5034711;28;20112;-90
2022/07/01 12:17:25;;;;;;;15.38;4.60;;;33.60;71.60;;;;;;5033428;28;20029;-92
2022/07/01 12:19:52;;;;;;;10.15;3.40;;;33.70;72.20;;;;;;5016632;28;20473;-90
2022/07/01 12:22:19;;;;;;;10.40;3.83;;;34.00;72.10;;;;;;5015043;28;20026;-90
2022/07/01 12:24:48;;;;;;;7.80;3.20;;;34.30;71.40;;;;;;5015005;28;20500;-89
2022/07/01 12:27:14;;;;;;;11.50;3.55;;;34.60;70.70;;;;;;5019245;28;20024;-89
2022/07/01 12:29:43;;;;;;;12.02;3.60;;;35.00;69.80;;;;;;5019983;28;20072;-89
2022/07/01 12:32:11;;;;;;;9.95;4.35;;;35.20;69.30;;;;;;5014695;28;20037;-90
2022/07/01 12:34:45;;;;;;;15.32;4.25;;;35.50;68.90;;;;;;5014185;28;20502;-89
2022/07/01 12:37:32;;;;;;;9.48;3.90;;;35.90;68.20;;;;;;5014571;28;20482;-90
2022/07/01 12:40:19;;;;;;;10.02;3.30;;;36.10;67.70;;;;;;5013649;28;20030;-90
2022/07/01 12:42:45;;;;;;;13.38;3.40;;;36.60;65.90;;;;;;5014876;28;20528;-92
2022/07/01 12:45:12;;;;;;;12.60;3.72;;;36.90;66.00;;;;;;5014368;28;20046;-90
2022/07/01 12:47:39;;;;;;;13.40;3.80;;;37.00;62.40;;;;;;5013149;28;20022;-90
2022/07/01 12:50:19;;;;;;;11.75;4.03;;;37.10;62.70;;;;;;5014615;28;20108;-90
2022/07/01 12:53:00;;;;;;;9.90;3.20;;;37.20;62.10;;;;;;5014397;28;20097;-89
2022/07/01 12:55:27;;;;;;;7.95;2.92;;;37.30;62.40;;;;;;5014145;28;20034;-88
2022/07/01 12:57:55;;;;;;;9.80;3.60;;;37.50;62.70;;;;;;5014360;28;20030;-89
2022/07/01 13:00:25;;;;;;;10.77;3.78;;;37.60;62.00;;;;;;5028961;28;20090;-89
2022/07/01 13:02:52;;;;;;;12.02;4.05;;;37.80;61.90;;;;;;5033950;28;20225;-89
2022/07/01 13:05:18;;;;;;;11.35;3.95;;;37.90;60.20;;;;;;5034012;28;20202;-90
2022/07/01 13:07:44;;;;;;;6.72;3.38;;;38.00;60.90;;;;;;5033363;28;20477;-88